Buzau, Romania
Current Conditions -  °F | °C
As of 1:00 PM on Wednesday 26 Nov 2014 (Local Time) from LRBO Reporting Station
Overcast Overcast  
Wind Chill: 16°   Ceiling: 900
Heat Index: 27°   Visibility: 5mi
Dew Point: 21°   Wind: 12mph
Humidity: 80%   Direction: 40°NE
Pressure: 30.36"   Gusts: NA
Location:  45.15°N, 26.82°E
Report Text: LRBO 261000Z 04010KT 8000 BKN009 OVC015 M03/M06 Q1028 GRN GRN
Loading
Personal Weather Stations






























Interactive Weather Map New forecast layout! Learn more

10-Day Weather Forecast

Advertisements
Track Severe Weather on mobile